Time;durP1;ratioP1;P1;durP2;ratioP2;P2;SDS_P1;SDS_P2;PMS_P1;PMS_P2;Temp;Humidity;BMP_temperature;BMP_pressure;BME280_temperature;BME280_humidity;BME280_pressure;Samples;Min_cycle;Max_cycle;Signal;HPM_P1;HPM_P2
2023/04/06 00:01:57;;;;;;;;;;;6.20;81.40;;;-151.14;100.00;62537.16;5013272;28;19921;-89
2023/04/06 00:04:27;;;;;;;;;;;6.20;81.50;;;-151.14;100.00;62537.16;4997073;28;19922;-89
2023/04/06 00:06:56;;;;;;;;;;;6.20;81.50;;;-151.14;100.00;62537.16;4996977;28;20231;-89
2023/04/06 00:09:24;;;;;;;;;;;6.20;81.50;;;-151.14;100.00;62537.16;5013201;28;19922;-89
2023/04/06 00:11:52;;;;;;;;;;;6.20;81.40;;;-151.14;100.00;62537.16;4997083;28;19964;-89
2023/04/06 00:14:21;;;;;;;;;;;6.20;81.50;;;-151.14;100.00;62537.16;4996878;28;19922;-89
2023/04/06 00:16:49;;;;;;;;;;;6.20;81.50;;;-151.14;100.00;62537.16;5013295;28;19921;-88
2023/04/06 00:19:17;;;;;;;;;;;6.20;81.50;;;-151.14;100.00;62537.16;4996774;28;19928;-89
2023/04/06 00:21:46;;;;;;;;;;;6.20;81.60;;;-151.14;100.00;62537.16;4979451;28;20224;-88
2023/04/06 00:24:15;;;;;;;;;;;6.20;81.40;;;-151.14;100.00;62537.16;4977314;28;19922;-89
2023/04/06 00:26:43;;;;;;;;;;;6.20;81.40;;;-151.14;100.00;62537.16;4977244;28;19928;-89
2023/04/06 00:29:11;;;;;;;;;;;6.20;81.40;;;-151.14;100.00;62537.16;4976981;28;19928;-89
2023/04/06 00:31:40;;;;;;;;;;;6.20;81.50;;;-151.14;100.00;62537.16;5008016;28;19922;-89
2023/04/06 00:34:08;;;;;;;;;;;6.20;81.60;;;-151.14;100.00;62537.16;4996571;28;19921;-90
2023/04/06 00:36:36;;;;;;;;;;;6.20;81.40;;;-151.14;100.00;62537.16;4996427;28;19928;-89
2023/04/06 00:39:05;;;;;;;;;;;6.20;81.50;;;-151.14;100.00;62537.16;4996585;28;19921;-90
2023/04/06 00:41:35;;;;;;;;;;;6.20;81.60;;;-151.14;100.00;62537.16;4996459;28;19922;-89
2023/04/06 00:44:03;;;;;;;;;;;6.20;81.50;;;-151.14;100.00;62537.16;5012911;28;19928;-90
2023/04/06 00:46:31;;;;;;;;;;;6.20;82.40;;;-151.14;100.00;62537.16;5012887;28;19922;-89
2023/04/06 00:48:59;;;;;;;;;;;6.20;81.60;;;-151.14;100.00;62537.16;4996579;28;19922;-90
2023/04/06 00:51:28;;;;;;;;;;;6.20;81.60;;;-151.14;100.00;62537.16;5012433;28;19921;-89
2023/04/06 00:53:56;;;;;;;;;;;6.20;81.60;;;-151.14;100.00;62537.16;4996266;28;19927;-89
2023/04/06 00:56:27;;;;;;;;;;;6.20;81.60;;;-151.14;100.00;62537.16;5012653;28;19921;-89
2023/04/06 00:58:55;;;;;;;;;;;6.20;81.60;;;-151.14;100.00;62537.16;4996524;28;19922;-89
2023/04/06 01:01:24;;;;;;;;;;;6.20;81.60;;;-151.14;100.00;62537.16;5012267;28;20205;-89
2023/04/06 01:03:55;;;;;;;;;;;6.20;81.60;;;-151.14;100.00;62537.16;4996200;28;20282;-89
2023/04/06 01:06:24;;;;;;;;;;;6.20;81.60;;;-151.14;100.00;62537.16;5012421;28;20251;-89
2023/04/06 01:09:00;;;;;;;;;;;6.20;81.60;;;-151.14;100.00;62537.16;5012532;28;19928;-89
2023/04/06 01:11:31;;;;;;;;;;;6.20;81.60;;;-151.14;100.00;62537.16;4987635;28;19922;-90
2023/04/06 01:13:59;;;;;;;;;;;6.20;81.60;;;-151.14;100.00;62537.16;4976810;28;20121;-89
2023/04/06 01:16:54;;;;;;;;;;;6.20;81.50;;;-151.14;100.00;62537.16;4992479;28;20113;-89
2023/04/06 01:19:27;;;;;;;;;;;6.20;81.50;;;-151.14;100.00;62537.16;4976569;28;20217;-88
2023/04/06 01:21:56;;;;;;;;;;;6.20;81.60;;;-151.14;100.00;62537.16;4976563;28;20117;-89
2023/04/06 01:24:28;;;;;;;;;;;6.20;81.60;;;-151.14;100.00;62537.16;5008905;28;19922;-89
2023/04/06 01:27:06;;;;;;;;;;;6.20;81.60;;;-151.14;100.00;62537.16;4993737;28;19928;-89
2023/04/06 01:29:54;;;;;;;;;;;6.20;81.60;;;-151.14;100.00;62537.16;4985584;28;19922;-90
2023/04/06 01:32:54;;;;;;;;;;;6.20;81.60;;;-151.14;100.00;62537.16;4981349;28;19964;-90
2023/04/06 01:35:37;;;;;;;;;;;6.20;81.60;;;-151.14;100.00;62537.16;4976563;28;19922;-88
2023/04/06 01:38:18;;;;;;;;;;;6.20;81.60;;;-151.14;100.00;62537.16;4976384;28;19928;-89
2023/04/06 01:40:49;;;;;;;;;;;6.20;81.60;;;-151.14;100.00;62537.16;4975837;28;20221;-88
2023/04/06 01:43:20;;;;;;;;;;;6.20;81.60;;;-151.14;100.00;62537.16;4976437;28;19922;-88
2023/04/06 01:46:03;;;;;;;;;;;6.10;81.60;;;-151.14;100.00;62537.16;4976569;28;20218;-88
2023/04/06 01:48:36;;;;;;;;;;;6.10;81.60;;;-151.14;100.00;62537.16;4995834;28;19921;-88
2023/04/06 01:51:13;;;;;;;;;;;6.10;81.60;;;-151.14;100.00;62537.16;5010727;28;19922;-89
2023/04/06 01:53:49;;;;;;;;;;;6.10;81.50;;;-151.14;100.00;62537.16;4975931;28;19922;-89
2023/04/06 01:56:20;;;;;;;;;;;6.10;81.60;;;-151.14;100.00;62537.16;4992338;28;19943;-89
2023/04/06 01:58:59;;;;;;;;;;;6.10;81.60;;;-151.14;100.00;62537.16;4976274;28;19922;-89
2023/04/06 02:01:33;;;;;;;;;;;6.10;81.60;;;-151.14;100.00;62537.16;4975725;28;20232;-89
2023/04/06 02:04:01;;;;;;;;;;;6.10;81.60;;;-151.14;100.00;62537.16;4992149;28;19921;-88
2023/04/06 02:06:30;;;;;;;;;;;6.10;81.70;;;-151.14;100.00;62537.16;4975694;28;19922;-89
2023/04/06 02:08:58;;;;;;;;;;;6.10;81.60;;;-151.14;100.00;62537.16;4975901;28;19928;-89
2023/04/06 02:11:27;;;;;;;;;;;6.10;81.60;;;-151.14;100.00;62537.16;4975455;28;19929;-89
2023/04/06 02:13:57;;;;;;;;;;;6.20;81.60;;;-151.14;100.00;62537.16;4975937;28;20210;-89
2023/04/06 02:16:30;;;;;;;;;;;6.10;81.60;;;-151.14;100.00;62537.16;4975744;28;19922;-89
2023/04/06 02:18:58;;;;;;;;;;;6.10;81.60;;;-151.14;100.00;62537.16;4991778;28;19926;-89
2023/04/06 02:21:26;;;;;;;;;;;6.10;81.60;;;-151.14;100.00;62537.16;4991150;28;20102;-89
2023/04/06 02:23:55;;;;;;;;;;;6.10;81.60;;;-151.14;100.00;62537.16;4991227;28;19928;-89
2023/04/06 02:26:23;;;;;;;;;;;6.10;81.60;;;-151.14;100.00;62537.16;4975599;28;20218;-89
2023/04/06 02:28:52;;;;;;;;;;;6.10;81.60;;;-151.14;100.00;62537.16;4975643;28;19922;-89
2023/04/06 02:31:20;;;;;;;;;;;6.10;81.70;;;-151.14;100.00;62537.16;4975187;28;20178;-89
2023/04/06 02:33:49;;;;;;;;;;;6.10;81.60;;;-151.14;100.00;62537.16;4975643;28;19922;-89
2023/04/06 02:36:18;;;;;;;;;;;6.10;81.60;;;-151.14;100.00;62537.16;4977721;28;19936;-89
2023/04/06 02:38:47;;;;;;;;;;;6.10;81.70;;;-151.14;100.00;62537.16;4990545;28;19922;-89
2023/04/06 02:41:15;;;;;;;;;;;6.10;81.70;;;-151.14;100.00;62537.16;5011613;28;19936;-89
2023/04/06 02:43:43;;;;;;;;;;;6.10;81.70;;;-151.14;100.00;62537.16;4995010;28;20231;-89
2023/04/06 02:46:21;;;;;;;;;;;6.10;81.70;;;-151.14;100.00;62537.16;4994678;28;19928;-89
2023/04/06 02:48:49;;;;;;;;;;;6.10;81.70;;;-151.14;100.00;62537.16;4994539;28;19928;-89
2023/04/06 02:51:17;;;;;;;;;;;6.10;81.70;;;-151.14;100.00;62537.16;5010632;28;19928;-88
2023/04/06 02:53:51;;;;;;;;;;;6.10;81.70;;;-151.14;100.00;62537.16;4996063;28;20213;-88
2023/04/06 02:56:20;;;;;;;;;;;6.10;81.60;;;-151.14;100.00;62537.16;4998221;28;19928;-89
2023/04/06 02:58:51;;;;;;;;;;;6.10;81.60;;;-151.14;100.00;62537.16;4998262;28;20097;-89
2023/04/06 03:01:22;;;;;;;;;;;6.10;81.60;;;-151.14;100.00;62537.16;4997867;28;19928;-89
2023/04/06 03:03:56;;;;;;;;;;;6.10;81.60;;;-151.14;100.00;62537.16;4998223;28;19928;-89
2023/04/06 03:06:27;;;;;;;;;;;6.10;81.60;;;-151.14;100.00;62537.16;4998001;28;20125;-89
2023/04/06 03:09:00;;;;;;;;;;;6.10;81.60;;;-151.14;100.00;62537.16;4997976;28;19921;-89
2023/04/06 03:11:28;;;;;;;;;;;6.10;81.60;;;-151.14;100.00;62537.16;4997650;28;19921;-89
2023/04/06 03:13:58;;;;;;;;;;;6.10;81.60;;;-151.14;100.00;62537.16;5014241;28;19922;-89
2023/04/06 03:16:28;;;;;;;;;;;6.10;81.60;;;-151.14;100.00;62537.16;4997877;28;19922;-88
2023/04/06 03:18:56;;;;;;;;;;;6.10;81.70;;;-151.14;100.00;62537.16;5014129;28;20116;-89
2023/04/06 03:21:25;;;;;;;;;;;6.10;81.60;;;-151.14;100.00;62537.16;4997366;28;19921;-88
2023/04/06 03:23:54;;;;;;;;;;;6.10;81.60;;;-151.14;100.00;62537.16;4997759;28;20231;-89
2023/04/06 03:26:23;;;;;;;;;;;6.10;81.60;;;-151.14;100.00;62537.16;4997446;28;19921;-89
2023/04/06 03:28:53;;;;;;;;;;;6.10;81.70;;;-151.14;100.00;62537.16;4997566;28;19976;-89
2023/04/06 03:31:25;;;;;;;;;;;6.10;81.60;;;-151.14;100.00;62537.16;4997365;28;19921;-89
2023/04/06 03:34:14;;;;;;;;;;;6.10;81.60;;;-151.14;100.00;62537.16;5010367;28;19974;-89
2023/04/06 03:36:43;;;;;;;;;;;6.10;81.60;;;-151.14;100.00;62537.16;4997663;28;19921;-89
2023/04/06 03:39:11;;;;;;;;;;;6.10;81.60;;;-151.14;100.00;62537.16;5013625;28;19922;-89
2023/04/06 03:41:43;;;;;;;;;;;6.10;81.60;;;-151.14;100.00;62537.16;4997141;28;19928;-89
2023/04/06 03:44:33;;;;;;;;;;;6.10;81.60;;;-151.14;100.00;62537.16;4997638;28;20226;-89
2023/04/06 03:47:02;;;;;;;;;;;6.10;81.60;;;-151.14;100.00;62537.16;4997346;28;19921;-89
2023/04/06 03:49:33;;;;;;;;;;;6.10;81.60;;;-151.14;100.00;62537.16;5013426;28;20209;-89
2023/04/06 03:52:02;;;;;;;;;;;6.10;81.60;;;-151.14;100.00;62537.16;5013494;28;19921;-89
2023/04/06 03:54:31;;;;;;;;;;;6.10;81.60;;;-151.14;100.00;62537.16;5002323;28;19944;-89
2023/04/06 03:57:00;;;;;;;;;;;6.10;81.60;;;-151.14;100.00;62537.16;4994063;28;19928;-89
2023/04/06 03:59:28;;;;;;;;;;;6.10;81.70;;;-151.14;100.00;62537.16;4977678;28;19922;-89
2023/04/06 04:01:56;;;;;;;;;;;6.10;81.70;;;-151.14;100.00;62537.16;4977495;28;19954;-89
2023/04/06 04:04:25;;;;;;;;;;;6.10;81.70;;;-151.14;100.00;62537.16;4993478;28;19922;-89
2023/04/06 04:06:55;;;;;;;;;;;6.10;81.70;;;-151.14;100.00;62537.16;4993774;28;20213;-89
2023/04/06 04:09:23;;;;;;;;;;;6.10;81.70;;;-151.14;100.00;62537.16;4993867;28;19928;-89
2023/04/06 04:11:52;;;;;;;;;;;6.10;81.60;;;-151.14;100.00;62537.16;4977518;28;20232;-88
2023/04/06 04:14:21;;;;;;;;;;;6.10;81.60;;;-151.14;100.00;62537.16;4977549;28;20121;-89
2023/04/06 04:16:50;;;;;;;;;;;6.10;81.60;;;-151.14;100.00;62537.16;4993818;28;19928;-88
2023/04/06 04:19:19;;;;;;;;;;;6.10;81.60;;;-151.14;100.00;62537.16;4993678;28;19922;-89
2023/04/06 04:21:48;;;;;;;;;;;6.10;81.70;;;-151.14;100.00;62537.16;4993343;28;19922;-89
2023/04/06 04:24:22;;;;;;;;;;;6.10;81.70;;;-151.14;100.00;62537.16;4977536;28;20124;-89
2023/04/06 04:26:50;;;;;;;;;;;6.10;81.50;;;-151.14;100.00;62537.16;4993523;28;19928;-89
2023/04/06 04:29:20;;;;;;;;;;;6.10;81.60;;;-151.14;100.00;62537.16;4977254;28;19929;-89
2023/04/06 04:31:49;;;;;;;;;;;6.10;81.50;;;-151.14;100.00;62537.16;4977207;28;19922;-89
2023/04/06 04:34:20;;;;;;;;;;;6.10;81.60;;;-151.14;100.00;62537.16;4977263;28;20209;-89
2023/04/06 04:36:48;;;;;;;;;;;6.10;81.60;;;-151.14;100.00;62537.16;4993643;28;19922;-88
2023/04/06 04:42:08;;;;;;;;;;;6.10;81.60;;;-151.14;100.00;62537.16;5176351;23;19922;-88
2023/04/06 04:44:41;;;;;;;;;;;6.10;81.60;;;-151.14;100.00;62537.16;4954734;28;19945;-88
2023/04/06 04:47:11;;;;;;;;;;;6.10;81.50;;;-151.14;100.00;62537.16;4970410;28;19929;-88
2023/04/06 04:49:45;;;;;;;;;;;6.10;81.60;;;-151.14;100.00;62537.16;4954582;29;19923;-88
2023/04/06 04:52:17;;;;;;;;;;;6.00;81.50;;;-151.14;100.00;62537.16;4951315;29;20236;-88
2023/04/06 04:55:11;;;;;;;;;;;6.00;81.50;;;-151.14;100.00;62537.16;4967275;23;19930;-88
2023/04/06 04:57:41;;;;;;;;;;;6.00;81.50;;;-151.14;100.00;62537.16;4957882;28;20217;-89
2023/04/06 05:00:10;;;;;;;;;;;6.10;81.60;;;-151.14;100.00;62537.16;4957560;28;20104;-89
2023/04/06 05:02:41;;;;;;;;;;;6.00;81.50;;;-151.14;100.00;62537.16;4957554;28;19922;-88
2023/04/06 05:05:16;;;;;;;;;;;6.10;81.60;;;-151.14;100.00;62537.16;4957405;28;19937;-87
2023/04/06 05:07:45;;;;;;;;;;;6.00;81.40;;;-151.14;100.00;62537.16;4957716;28;19929;-88
2023/04/06 05:10:22;;;;;;;;;;;6.10;81.50;;;-151.14;100.00;62537.16;4973235;28;20231;-88
2023/04/06 05:13:01;;;;;;;;;;;6.10;81.50;;;-151.14;100.00;62537.16;4973662;28;19922;-88
2023/04/06 05:15:30;;;;;;;;;;;6.00;81.40;;;-151.14;100.00;62537.16;4957066;28;19929;-88
2023/04/06 05:18:04;;;;;;;;;;;6.10;81.50;;;-151.14;100.00;62537.16;4957204;28;19941;-88
2023/04/06 05:20:35;;;;;;;;;;;6.00;81.40;;;-151.14;100.00;62537.16;4957121;28;19922;-88
2023/04/06 05:23:03;;;;;;;;;;;6.00;81.30;;;-151.14;100.00;62537.16;4957520;28;19922;-88
2023/04/06 05:25:32;;;;;;;;;;;6.00;81.30;;;-151.14;100.00;62537.16;4957260;28;19922;-89
2023/04/06 05:28:10;;;;;;;;;;;6.00;81.30;;;-151.14;100.00;62537.16;4957409;28;19928;-88
2023/04/06 05:30:41;;;;;;;;;;;6.00;81.40;;;-151.14;100.00;62537.16;4973170;28;19922;-88
2023/04/06 05:33:11;;;;;;;;;;;6.00;81.30;;;-151.14;100.00;62537.16;4957327;28;19922;-89
2023/04/06 05:35:55;;;;;;;;;;;6.00;81.30;;;-151.14;100.00;62537.16;4957138;28;19998;-88
2023/04/06 05:38:24;;;;;;;;;;;6.00;81.30;;;-151.14;100.00;62537.16;4957166;28;19928;-87
2023/04/06 05:40:55;;;;;;;;;;;6.10;81.40;;;-151.14;100.00;62537.16;4972802;28;19936;-88
2023/04/06 05:43:28;;;;;;;;;;;6.00;81.20;;;-151.14;100.00;62537.16;4956923;28;19922;-88
2023/04/06 05:45:59;;;;;;;;;;;6.00;81.30;;;-151.14;100.00;62537.16;4956970;28;20225;-88
2023/04/06 05:48:28;;;;;;;;;;;6.00;81.20;;;-151.14;100.00;62537.16;4956951;28;19929;-88
2023/04/06 05:50:56;;;;;;;;;;;6.10;81.40;;;-151.14;100.00;62537.16;4972735;28;19922;-87
2023/04/06 05:53:31;;;;;;;;;;;6.00;81.20;;;-151.14;100.00;62537.16;4956927;28;19929;-88
2023/04/06 05:56:02;;;;;;;;;;;6.00;81.20;;;-151.14;100.00;62537.16;4956353;28;19929;-87
2023/04/06 05:58:32;;;;;;;;;;;6.00;81.20;;;-151.14;100.00;62537.16;4956833;28;19922;-88
2023/04/06 06:01:01;;;;;;;;;;;6.00;81.20;;;-151.14;100.00;62537.16;4956690;28;19922;-87
2023/04/06 06:15:40;;;;;;;;;;;6.00;81.10;;;4.79;75.29;95658.75;4241777;32;2122009;-88
2023/04/06 06:18:09;;;;;;;;;;;6.00;81.70;;;4.79;75.22;95658.75;5015496;23;34476;-83
2023/04/06 06:20:37;;;;;;;;;;;6.00;81.60;;;4.79;75.24;95668.75;4990826;28;20116;-83
2023/04/06 06:23:07;;;;;;;;;;;6.00;81.60;;;4.79;75.24;95666.88;5007351;28;19925;-83
2023/04/06 06:25:35;;;;;;;;;;;6.00;81.60;;;4.79;75.16;95666.03;5006459;28;19928;-83
2023/04/06 06:28:04;;;;;;;;;;;6.00;81.70;;;4.78;75.15;95667.13;4974929;28;19922;-83
2023/04/06 06:30:33;;;;;;;;;;;6.00;81.60;;;4.76;75.00;95661.94;4974554;28;20330;-83
2023/04/06 06:33:03;;;;;;;;;;;6.00;81.60;;;4.77;75.27;95663.59;4990870;28;20125;-83
2023/04/06 06:35:32;;;;;;;;;;;6.00;81.60;;;4.77;75.32;95663.59;4989676;28;19922;-83
2023/04/06 06:38:04;;;;;;;;;;;6.00;81.60;;;4.77;75.12;95663.59;4988120;28;19922;-84
2023/04/06 06:40:34;;;;;;;;;;;6.00;81.60;;;4.77;75.33;95669.00;4990132;28;19921;-83
2023/04/06 06:43:02;;;;;;;;;;;6.00;81.70;;;4.76;75.18;95670.06;4973838;28;19929;-83
2023/04/06 06:45:35;;;;;;;;;;;6.00;81.70;;;4.75;75.57;95674.69;4990008;28;20125;-83
2023/04/06 06:48:05;;;;;;;;;;;6.00;81.70;;;4.76;75.75;95668.19;4990508;28;20147;-83
2023/04/06 06:50:33;;;;;;;;;;;6.00;81.70;;;4.76;75.50;95670.06;4990528;28;19921;-83
2023/04/06 06:53:01;;;;;;;;;;;6.00;81.70;;;4.76;75.09;95673.63;4990278;28;20217;-83
2023/04/06 06:55:29;;;;;;;;;;;6.00;81.70;;;4.75;75.47;95674.69;4973668;28;20231;-83
2023/04/06 06:57:58;;;;;;;;;;;6.00;81.70;;;4.76;75.28;95672.78;4974244;28;19926;-81
2023/04/06 07:00:26;;;;;;;;;;;6.00;81.70;;;4.76;75.52;95680.91;4974159;28;19922;-83
2023/04/06 07:02:55;;;;;;;;;;;6.00;81.80;;;4.76;75.13;95676.34;4990338;28;19928;-82
2023/04/06 07:05:24;;;;;;;;;;;6.00;81.60;;;4.77;75.29;95674.44;4989870;28;19928;-82
2023/04/06 07:07:52;;;;;;;;;;;6.00;81.70;;;4.76;75.24;95675.50;4990142;28;19922;-82
2023/04/06 07:10:21;;;;;;;;;;;6.00;81.70;;;4.78;75.07;95684.22;5022768;28;19921;-83
2023/04/06 07:12:49;;;;;;;;;;;6.00;81.50;;;4.78;75.45;95684.22;4990258;28;19928;-83
2023/04/06 07:15:17;;;;;;;;;;;6.00;81.60;;;4.79;75.16;95679.59;4968062;28;19922;-82
2023/04/06 07:17:46;;;;;;;;;;;6.00;81.50;;;4.79;75.04;95675.00;4961181;28;20253;-83
2023/04/06 07:20:14;;;;;;;;;;;6.00;81.50;;;4.79;75.15;95677.72;5009549;28;19922;-82
2023/04/06 07:22:44;;;;;;;;;;;6.00;81.60;;;4.80;75.32;95682.06;4977271;28;19922;-82
2023/04/06 07:25:12;;;;;;;;;;;6.00;81.50;;;4.80;75.42;95671.22;5009029;28;19928;-82
2023/04/06 07:27:42;;;;;;;;;;;6.00;81.50;;;4.81;75.10;95675.59;4960974;28;19922;-82
2023/04/06 07:30:11;;;;;;;;;;;6.00;81.40;;;4.81;74.92;95678.31;4976926;28;19921;-82
2023/04/06 07:32:40;;;;;;;;;;;6.00;81.40;;;4.81;75.05;95675.59;5009407;28;20205;-82
2023/04/06 07:35:09;;;;;;;;;;;6.00;81.30;;;4.82;75.27;95679.09;4960792;28;19922;-82
2023/04/06 07:37:37;;;;;;;;;;;6.10;81.40;;;4.83;75.10;95676.16;4960682;28;19937;-82
2023/04/06 07:40:08;;;;;;;;;;;6.10;81.40;;;4.84;75.12;95676.97;4960697;28;19922;-82
2023/04/06 07:42:36;;;;;;;;;;;6.10;81.40;;;4.85;74.92;95681.34;4976671;28;19928;-82
2023/04/06 07:45:08;;;;;;;;;;;6.10;81.20;;;4.84;75.05;95677.78;4976738;28;20318;-82
2023/04/06 07:47:36;;;;;;;;;;;6.10;81.20;;;4.86;75.01;95674.84;5009014;28;19922;-82
2023/04/06 07:50:05;;;;;;;;;;;6.10;81.20;;;4.86;74.73;95678.38;4976524;28;19929;-82
2023/04/06 07:52:33;;;;;;;;;;;6.00;80.90;;;4.86;74.75;95678.38;4960614;28;19922;-82
2023/04/06 07:55:02;;;;;;;;;;;6.10;81.10;;;4.87;74.81;95682.72;4976549;28;20209;-82
2023/04/06 07:57:32;;;;;;;;;;;6.10;81.10;;;4.87;74.81;95677.28;5008829;28;19928;-83
2023/04/06 08:00:00;;;;;;;;;;;6.10;81.20;;;4.86;75.08;95672.13;4976683;28;19921;-83
2023/04/06 08:02:28;;;;;;;;;;;6.10;81.10;;;4.85;75.03;95668.59;4976229;28;19944;-82
2023/04/06 08:04:56;;;;;;;;;;;6.10;81.10;;;4.86;74.65;95670.22;4976408;28;19989;-83
2023/04/06 08:07:24;;;;;;;;;;;6.10;81.00;;;4.87;74.93;95676.50;4960113;28;19921;-82
2023/04/06 08:09:53;;;;;;;;;;;6.10;81.00;;;4.87;74.92;95677.28;4960313;28;19928;-82
2023/04/06 08:12:21;;;;;;;;;;;6.10;81.10;;;4.86;74.69;95681.06;4976304;28;19922;-83
2023/04/06 08:14:50;;;;;;;;;;;6.10;81.00;;;4.88;74.70;95678.13;4976138;28;19936;-83
2023/04/06 08:17:18;;;;;;;;;;;6.10;81.20;;;4.86;74.73;95672.94;4975897;28;20098;-83
2023/04/06 08:19:46;;;;;;;;;;;6.10;81.00;;;4.86;74.67;95678.38;4976403;28;19922;-82
2023/04/06 08:22:14;;;;;;;;;;;6.10;80.90;;;4.86;74.50;95681.06;4976264;28;19928;-83
2023/04/06 08:24:42;;;;;;;;;;;6.10;80.80;;;4.86;74.61;95675.66;4959806;28;19936;-83
2023/04/06 08:27:11;;;;;;;;;;;6.10;81.00;;;4.86;74.86;95681.06;4958856;28;19926;-82
2023/04/06 08:29:39;;;;;;;;;;;6.10;80.90;;;4.86;74.63;95674.84;4976183;28;20113;-83
2023/04/06 08:32:08;;;;;;;;;;;6.10;80.90;;;4.86;74.81;95681.06;4976091;28;19922;-83
2023/04/06 08:34:36;;;;;;;;;;;6.10;80.90;;;4.85;74.68;95679.44;4975793;28;19921;-83
2023/04/06 08:37:05;;;;;;;;;;;6.10;81.00;;;4.85;74.81;95679.44;4975527;28;19937;-83
2023/04/06 08:39:33;;;;;;;;;;;6.10;80.90;;;4.85;74.96;95674.00;4959523;28;20232;-83
2023/04/06 08:42:02;;;;;;;;;;;6.10;81.00;;;4.86;74.99;95672.94;4975908;28;19922;-83
2023/04/06 08:44:31;;;;;;;;;;;6.10;81.10;;;4.86;74.79;95669.41;4975409;28;19928;-82
2023/04/06 08:46:59;;;;;;;;;;;6.10;81.00;;;4.85;74.63;95667.78;4991740;28;19921;-83
2023/04/06 08:49:28;;;;;;;;;;;6.10;80.90;;;4.86;74.73;95674.84;4975742;28;19928;-83
2023/04/06 08:51:57;;;;;;;;;;;6.10;81.00;;;4.86;74.97;95677.56;4992995;28;20247;-83
2023/04/06 08:54:25;;;;;;;;;;;6.10;81.00;;;4.86;74.83;95675.66;4975635;28;19922;-83
2023/04/06 08:56:53;;;;;;;;;;;6.10;80.90;;;4.86;74.77;95675.66;4992789;28;19932;-83
2023/04/06 08:59:21;;;;;;;;;;;6.10;80.90;;;4.86;74.64;95675.66;4991763;28;19944;-83
2023/04/06 09:01:49;;;;;;;;;;;6.10;80.90;;;4.87;74.84;95681.91;4991579;28;19922;-83
2023/04/06 09:04:17;;;;;;;;;;;6.10;81.00;;;4.85;74.87;95679.44;4992660;28;19922;-83
2023/04/06 09:06:46;;;;;;;;;;;6.00;80.90;;;4.84;74.55;95675.06;4956106;28;19990;-83
2023/04/06 09:09:15;;;;;;;;;;;6.10;80.90;;;4.85;74.75;95679.44;4956460;28;19922;-83
2023/04/06 09:11:47;;;;;;;;;;;6.10;81.00;;;4.84;74.94;95677.78;4956106;28;19928;-84
2023/04/06 09:14:16;;;;;;;;;;;6.10;81.00;;;4.84;75.03;95683.22;4973282;28;20071;-83
2023/04/06 09:16:46;;;;;;;;;;;6.10;81.10;;;4.84;75.00;95677.78;4940226;28;19929;-83
2023/04/06 09:19:14;;;;;;;;;;;6.10;81.10;;;4.84;74.94;95677.78;4940067;28;19922;-83
2023/04/06 09:21:42;;;;;;;;;;;6.10;81.20;;;4.84;74.63;95677.78;4973206;28;20210;-83
2023/04/06 09:24:11;;;;;;;;;;;6.10;81.20;;;4.82;74.90;95669.09;4955739;28;20040;-83
2023/04/06 09:26:47;;;;;;;;;;;6.10;81.20;;;4.85;75.11;95679.44;4940192;28;19999;-83
2023/04/06 09:29:23;;;;;;;;;;;6.10;81.10;;;4.85;74.86;95679.44;4940198;28;19922;-83
2023/04/06 09:31:51;;;;;;;;;;;6.10;81.10;;;4.85;74.76;95668.59;4955708;28;19922;-83
2023/04/06 09:34:23;;;;;;;;;;;6.10;81.00;;;4.86;74.87;95662.09;4963566;28;19928;-83
2023/04/06 09:36:52;;;;;;;;;;;6.10;81.00;;;4.86;74.89;95669.41;4958909;28;19928;-83
2023/04/06 09:39:23;;;;;;;;;;;6.10;81.10;;;4.86;74.81;95670.22;4974642;28;19921;-83
2023/04/06 09:41:52;;;;;;;;;;;6.10;81.00;;;4.85;74.76;95663.16;4992143;28;19922;-83
2023/04/06 09:44:20;;;;;;;;;;;6.10;80.90;;;4.87;74.78;95671.88;4958695;28;19922;-83
2023/04/06 09:46:49;;;;;;;;;;;6.10;81.00;;;4.87;74.93;95671.88;4992321;28;19922;-83
2023/04/06 09:49:17;;;;;;;;;;;6.10;81.00;;;4.87;74.77;95671.88;4974764;28;19928;-83
2023/04/06 09:51:47;;;;;;;;;;;6.10;81.10;;;4.86;74.79;95672.94;4991186;28;19921;-83
2023/04/06 09:54:17;;;;;;;;;;;6.10;81.00;;;4.86;74.97;95670.22;4991775;28;20213;-83
2023/04/06 09:56:48;;;;;;;;;;;6.10;81.00;;;4.87;74.73;95679.19;4974913;28;19944;-83
2023/04/06 09:59:20;;;;;;;;;;;6.10;81.00;;;4.87;74.88;95674.59;4974794;28;20117;-83
2023/04/06 10:01:50;;;;;;;;;;;6.10;80.90;;;4.85;74.52;95674.00;4958560;28;19944;-83
2023/04/06 10:04:24;;;;;;;;;;;6.10;80.90;;;4.84;74.70;95674.25;4974453;28;19922;-83
2023/04/06 10:06:53;;;;;;;;;;;6.10;81.00;;;4.84;74.66;95680.50;4974368;28;19929;-83
2023/04/06 10:09:22;;;;;;;;;;;6.10;81.00;;;4.84;74.96;95677.78;4954076;28;20389;-81
2023/04/06 10:11:58;;;;;;;;;;;6.10;81.10;;;4.84;74.81;95677.78;4969229;28;20120;-83
2023/04/06 10:14:30;;;;;;;;;;;6.10;81.00;;;4.86;74.60;95678.38;4963143;28;19922;-83
2023/04/06 10:16:58;;;;;;;;;;;6.10;81.00;;;4.87;74.94;95674.59;4973399;28;20120;-83
2023/04/06 10:19:27;;;;;;;;;;;6.00;80.90;;;4.88;74.95;95678.94;4969828;28;19922;-83
2023/04/06 10:21:56;;;;;;;;;;;6.10;81.00;;;4.88;74.51;95670.00;4963962;28;20478;-83
2023/04/06 10:24:24;;;;;;;;;;;6.10;80.80;;;4.88;74.81;95673.53;4989914;28;19921;-83
2023/04/06 10:27:00;;;;;;;;;;;6.10;80.80;;;4.91;74.33;95675.75;4983256;28;19921;-83
2023/04/06 10:29:28;;;;;;;;;;;6.10;80.60;;;4.93;74.38;95674.69;4987035;28;19936;-83
2023/04/06 10:31:56;;;;;;;;;;;6.10;80.50;;;4.91;74.34;95662.19;4969188;28;19928;-83
2023/04/06 10:34:24;;;;;;;;;;;6.10;80.50;;;4.95;74.35;95677.97;4989252;28;20308;-82
2023/04/06 10:36:52;;;;;;;;;;;6.20;80.50;;;4.97;74.64;95673.94;4970250;28;19922;-83
2023/04/06 10:39:25;;;;;;;;;;;6.20;80.90;;;4.99;74.78;95671.78;4972652;28;19922;-83
2023/04/06 10:41:53;;;;;;;;;;;6.20;80.80;;;5.02;74.44;95675.91;4983728;28;20231;-83
2023/04/06 10:44:23;;;;;;;;;;;6.20;80.70;;;5.02;74.65;95671.31;4989272;28;19928;-83
2023/04/06 10:46:55;;;;;;;;;;;6.20;80.60;;;5.03;74.36;95677.53;4973241;28;19922;-83
2023/04/06 10:49:23;;;;;;;;;;;6.20;80.50;;;5.01;74.48;95663.41;4989105;28;19922;-83
2023/04/06 10:51:53;;;;;;;;;;;6.20;80.50;;;5.02;74.29;95670.47;4992605;28;19922;-83
2023/04/06 10:54:22;;;;;;;;;;;6.20;80.40;;;5.01;74.24;95671.53;4993844;28;19926;-83
2023/04/06 10:56:50;;;;;;;;;;;6.20;80.20;;;5.01;74.34;95664.22;4986025;28;19922;-83
2023/04/06 10:59:20;;;;;;;;;;;6.20;80.30;;;5.02;74.17;95662.31;4975970;28;19921;-83
2023/04/06 11:01:50;;;;;;;;;;;6.20;80.30;;;5.01;74.62;95660.69;4992564;28;19922;-83
2023/04/06 11:04:19;;;;;;;;;;;6.20;80.30;;;5.02;74.09;95662.31;4976333;28;19937;-83
2023/04/06 11:06:47;;;;;;;;;;;6.20;80.40;;;5.01;74.33;95663.41;4976543;28;20124;-83
2023/04/06 11:09:24;;;;;;;;;;;6.20;80.30;;;5.00;74.41;95654.44;4992742;28;20134;-83
2023/04/06 11:11:52;;;;;;;;;;;6.20;80.30;;;5.01;74.17;95660.69;4993799;28;19943;-83
2023/04/06 11:14:20;;;;;;;;;;;6.20;80.40;;;5.02;74.48;95662.31;4992472;28;20134;-83
2023/04/06 11:16:50;;;;;;;;;;;6.30;80.50;;;5.02;74.48;95655.03;4976039;28;19928;-83
2023/04/06 11:19:18;;;;;;;;;;;6.30;80.70;;;5.03;74.48;95663.97;4980498;28;19922;-83
2023/04/06 11:21:48;;;;;;;;;;;6.30;80.70;;;5.05;74.68;95651.00;4976452;28;19921;-83
2023/04/06 11:24:16;;;;;;;;;;;6.30;80.70;;;5.05;74.82;95659.94;4966815;28;19936;-83
2023/04/06 11:26:45;;;;;;;;;;;6.30;80.70;;;5.05;74.37;95656.41;5012966;28;19944;-83
2023/04/06 11:29:13;;;;;;;;;;;6.30;80.60;;;5.04;74.62;95655.56;4995378;28;19929;-83
2023/04/06 11:31:42;;;;;;;;;;;6.30;80.60;;;5.05;74.37;95667.25;4979340;28;19940;-83
2023/04/06 11:34:16;;;;;;;;;;;6.30;80.50;;;5.06;74.40;95671.63;5012625;28;19921;-83
2023/04/06 11:36:45;;;;;;;;;;;6.20;80.40;;;5.04;74.51;95655.56;4995354;28;19927;-83
2023/04/06 11:39:13;;;;;;;;;;;6.30;80.50;;;5.03;74.35;95659.38;4957614;28;20214;-83
2023/04/06 11:41:41;;;;;;;;;;;6.30;80.50;;;5.04;74.60;95660.19;4973710;28;19928;-83
2023/04/06 11:44:10;;;;;;;;;;;6.30;80.50;;;5.03;74.43;95661.25;4956181;28;19934;-83
2023/04/06 11:46:38;;;;;;;;;;;6.30;80.40;;;5.03;74.37;95656.69;4956494;28;19922;-83